sensor_id;sensor_type;location;lat;lon;timestamp;P1;durP1;ratioP1;P2;durP2;ratioP2
21120;SDS011;12519;43.318;21.898;2023-03-29T00:01:27;6.0;;;5.0;;
21120;SDS011;12519;43.318;21.898;2023-03-29T00:06:05;6.0;;;5.0;;
21120;SDS011;12519;43.318;21.898;2023-03-29T00:10:42;6.0;;;5.0;;
21120;SDS011;12519;43.318;21.898;2023-03-29T00:15:24;6.0;;;5.0;;
21120;SDS011;12519;43.318;21.898;2023-03-29T00:20:02;6.0;;;6.0;;
21120;SDS011;12519;43.318;21.898;2023-03-29T00:24:45;6.0;;;6.0;;
21120;SDS011;12519;43.318;21.898;2023-03-29T00:29:23;6.0;;;6.0;;
21120;SDS011;12519;43.318;21.898;2023-03-29T00:34:00;7.0;;;7.0;;
21120;SDS011;12519;43.318;21.898;2023-03-29T00:38:38;7.0;;;7.0;;
21120;SDS011;12519;43.318;21.898;2023-03-29T00:43:15;9.0;;;8.0;;
21120;SDS011;12519;43.318;21.898;2023-03-29T00:47:55;9.0;;;8.0;;
21120;SDS011;12519;43.318;21.898;2023-03-29T00:52:46;11.0;;;10.0;;
21120;SDS011;12519;43.318;21.898;2023-03-29T00:57:30;11.0;;;10.0;;
21120;SDS011;12519;43.318;21.898;2023-03-29T01:02:10;10.0;;;8.0;;
21120;SDS011;12519;43.318;21.898;2023-03-29T01:06:56;10.0;;;8.0;;
21120;SDS011;12519;43.318;21.898;2023-03-29T01:11:50;8.0;;;7.0;;
21120;SDS011;12519;43.318;21.898;2023-03-29T01:16:43;8.0;;;7.0;;
21120;SDS011;12519;43.318;21.898;2023-03-29T01:21:26;8.0;;;7.0;;
21120;SDS011;12519;43.318;21.898;2023-03-29T01:26:34;8.0;;;7.0;;
21120;SDS011;12519;43.318;21.898;2023-03-29T01:31:42;7.0;;;7.0;;
21120;SDS011;12519;43.318;21.898;2023-03-29T01:36:35;7.0;;;7.0;;
21120;SDS011;12519;43.318;21.898;2023-03-29T01:41:40;7.0;;;6.0;;
21120;SDS011;12519;43.318;21.898;2023-03-29T01:46:47;7.0;;;6.0;;
21120;SDS011;12519;43.318;21.898;2023-03-29T01:51:53;7.0;;;6.0;;
21120;SDS011;12519;43.318;21.898;2023-03-29T01:56:52;7.0;;;6.0;;
21120;SDS011;12519;43.318;21.898;2023-03-29T02:01:40;6.0;;;6.0;;
21120;SDS011;12519;43.318;21.898;2023-03-29T02:06:31;6.0;;;6.0;;
21120;SDS011;12519;43.318;21.898;2023-03-29T02:11:17;6.0;;;6.0;;
21120;SDS011;12519;43.318;21.898;2023-03-29T02:16:03;6.0;;;6.0;;
21120;SDS011;12519;43.318;21.898;2023-03-29T02:20:51;6.0;;;6.0;;
21120;SDS011;12519;43.318;21.898;2023-03-29T02:25:34;6.0;;;6.0;;
21120;SDS011;12519;43.318;21.898;2023-03-29T02:30:15;7.0;;;6.0;;
21120;SDS011;12519;43.318;21.898;2023-03-29T02:35:04;7.0;;;6.0;;
21120;SDS011;12519;43.318;21.898;2023-03-29T02:40:00;7.0;;;6.0;;
21120;SDS011;12519;43.318;21.898;2023-03-29T02:44:41;7.0;;;6.0;;
21120;SDS011;12519;43.318;21.898;2023-03-29T02:49:27;7.0;;;6.0;;
21120;SDS011;12519;43.318;21.898;2023-03-29T02:54:08;7.0;;;6.0;;
21120;SDS011;12519;43.318;21.898;2023-03-29T02:58:57;7.0;;;6.0;;
21120;SDS011;12519;43.318;21.898;2023-03-29T03:03:34;6.0;;;5.0;;
21120;SDS011;12519;43.318;21.898;2023-03-29T03:08:11;6.0;;;5.0;;
21120;SDS011;12519;43.318;21.898;2023-03-29T03:12:48;4.0;;;4.0;;
21120;SDS011;12519;43.318;21.898;2023-03-29T03:17:24;4.0;;;4.0;;
21120;SDS011;12519;43.318;21.898;2023-03-29T03:22:01;4.0;;;4.0;;
21120;SDS011;12519;43.318;21.898;2023-03-29T03:26:39;4.0;;;4.0;;
21120;SDS011;12519;43.318;21.898;2023-03-29T03:31:15;5.0;;;4.0;;
21120;SDS011;12519;43.318;21.898;2023-03-29T03:35:52;5.0;;;4.0;;
21120;SDS011;12519;43.318;21.898;2023-03-29T03:40:29;7.0;;;4.0;;
21120;SDS011;12519;43.318;21.898;2023-03-29T03:45:08;7.0;;;4.0;;
21120;SDS011;12519;43.318;21.898;2023-03-29T03:49:46;7.0;;;4.0;;
21120;SDS011;12519;43.318;21.898;2023-03-29T03:54:23;9.0;;;5.0;;
21120;SDS011;12519;43.318;21.898;2023-03-29T03:59:00;9.0;;;5.0;;
21120;SDS011;12519;43.318;21.898;2023-03-29T04:03:36;9.0;;;5.0;;
21120;SDS011;12519;43.318;21.898;2023-03-29T04:08:13;9.0;;;5.0;;
21120;SDS011;12519;43.318;21.898;2023-03-29T04:22:03;4.0;;;4.0;;
21120;SDS011;12519;43.318;21.898;2023-03-29T04:26:40;4.0;;;4.0;;
21120;SDS011;12519;43.318;21.898;2023-03-29T04:31:16;4.0;;;4.0;;
21120;SDS011;12519;43.318;21.898;2023-03-29T04:35:53;4.0;;;4.0;;
21120;SDS011;12519;43.318;21.898;2023-03-29T04:40:29;4.0;;;4.0;;
21120;SDS011;12519;43.318;21.898;2023-03-29T04:45:07;4.0;;;4.0;;
21120;SDS011;12519;43.318;21.898;2023-03-29T04:49:46;4.0;;;4.0;;
21120;SDS011;12519;43.318;21.898;2023-03-29T04:54:23;5.0;;;4.0;;
21120;SDS011;12519;43.318;21.898;2023-03-29T04:58:59;5.0;;;4.0;;
21120;SDS011;12519;43.318;21.898;2023-03-29T05:03:36;4.0;;;4.0;;
21120;SDS011;12519;43.318;21.898;2023-03-29T05:08:13;4.0;;;4.0;;
21120;SDS011;12519;43.318;21.898;2023-03-29T05:12:49;4.0;;;4.0;;
21120;SDS011;12519;43.318;21.898;2023-03-29T05:17:26;4.0;;;4.0;;
21120;SDS011;12519;43.318;21.898;2023-03-29T05:22:03;5.0;;;4.0;;
21120;SDS011;12519;43.318;21.898;2023-03-29T05:26:40;5.0;;;4.0;;
21120;SDS011;12519;43.318;21.898;2023-03-29T05:31:17;6.0;;;5.0;;
21120;SDS011;12519;43.318;21.898;2023-03-29T05:36:00;6.0;;;5.0;;
21120;SDS011;12519;43.318;21.898;2023-03-29T05:40:42;5.0;;;4.0;;
21120;SDS011;12519;43.318;21.898;2023-03-29T05:45:19;5.0;;;4.0;;
21120;SDS011;12519;43.318;21.898;2023-03-29T05:49:56;5.0;;;4.0;;
21120;SDS011;12519;43.318;21.898;2023-03-29T05:54:32;4.0;;;4.0;;
21120;SDS011;12519;43.318;21.898;2023-03-29T05:59:09;4.0;;;4.0;;
21120;SDS011;12519;43.318;21.898;2023-03-29T06:03:45;4.0;;;4.0;;
21120;SDS011;12519;43.318;21.898;2023-03-29T06:08:21;4.0;;;4.0;;
21120;SDS011;12519;43.318;21.898;2023-03-29T06:12:58;4.0;;;3.0;;
21120;SDS011;12519;43.318;21.898;2023-03-29T06:17:35;4.0;;;3.0;;
21120;SDS011;12519;43.318;21.898;2023-03-29T06:22:11;4.0;;;3.0;;
21120;SDS011;12519;43.318;21.898;2023-03-29T06:26:47;4.0;;;3.0;;
21120;SDS011;12519;43.318;21.898;2023-03-29T06:31:23;5.0;;;3.0;;
21120;SDS011;12519;43.318;21.898;2023-03-29T06:35:59;5.0;;;3.0;;
21120;SDS011;12519;43.318;21.898;2023-03-29T06:40:36;6.0;;;4.0;;
21120;SDS011;12519;43.318;21.898;2023-03-29T06:45:13;6.0;;;4.0;;
21120;SDS011;12519;43.318;21.898;2023-03-29T06:49:50;6.0;;;4.0;;
21120;SDS011;12519;43.318;21.898;2023-03-29T06:54:27;6.0;;;5.0;;
21120;SDS011;12519;43.318;21.898;2023-03-29T06:59:03;6.0;;;5.0;;
21120;SDS011;12519;43.318;21.898;2023-03-29T07:03:40;6.0;;;6.0;;
21120;SDS011;12519;43.318;21.898;2023-03-29T07:08:17;6.0;;;6.0;;
21120;SDS011;12519;43.318;21.898;2023-03-29T07:12:54;7.0;;;6.0;;
21120;SDS011;12519;43.318;21.898;2023-03-29T07:17:30;7.0;;;6.0;;
21120;SDS011;12519;43.318;21.898;2023-03-29T07:22:06;6.0;;;5.0;;
21120;SDS011;12519;43.318;21.898;2023-03-29T07:26:43;6.0;;;5.0;;
21120;SDS011;12519;43.318;21.898;2023-03-29T07:31:20;6.0;;;4.0;;
21120;SDS011;12519;43.318;21.898;2023-03-29T07:35:57;6.0;;;4.0;;
21120;SDS011;12519;43.318;21.898;2023-03-29T07:40:34;6.0;;;4.0;;
21120;SDS011;12519;43.318;21.898;2023-03-29T07:45:14;6.0;;;4.0;;
21120;SDS011;12519;43.318;21.898;2023-03-29T07:49:53;6.0;;;4.0;;
21120;SDS011;12519;43.318;21.898;2023-03-29T07:54:30;5.0;;;5.0;;
21120;SDS011;12519;43.318;21.898;2023-03-29T07:59:07;5.0;;;5.0;;
21120;SDS011;12519;43.318;21.898;2023-03-29T08:03:43;5.0;;;4.0;;
21120;SDS011;12519;43.318;21.898;2023-03-29T08:08:20;5.0;;;4.0;;
21120;SDS011;12519;43.318;21.898;2023-03-29T08:12:56;5.0;;;4.0;;
21120;SDS011;12519;43.318;21.898;2023-03-29T08:17:35;5.0;;;4.0;;
21120;SDS011;12519;43.318;21.898;2023-03-29T08:22:13;5.0;;;4.0;;
21120;SDS011;12519;43.318;21.898;2023-03-29T08:26:50;5.0;;;4.0;;
21120;SDS011;12519;43.318;21.898;2023-03-29T08:31:27;5.0;;;4.0;;
21120;SDS011;12519;43.318;21.898;2023-03-29T08:36:05;5.0;;;4.0;;
21120;SDS011;12519;43.318;21.898;2023-03-29T08:40:47;4.0;;;4.0;;
21120;SDS011;12519;43.318;21.898;2023-03-29T08:45:31;4.0;;;4.0;;
21120;SDS011;12519;43.318;21.898;2023-03-29T08:50:53;4.0;;;4.0;;
21120;SDS011;12519;43.318;21.898;2023-03-29T08:55:51;4.0;;;4.0;;
21120;SDS011;12519;43.318;21.898;2023-03-29T09:00:46;4.0;;;4.0;;
21120;SDS011;12519;43.318;21.898;2023-03-29T09:05:37;4.0;;;4.0;;
21120;SDS011;12519;43.318;21.898;2023-03-29T09:10:37;5.0;;;5.0;;
21120;SDS011;12519;43.318;21.898;2023-03-29T09:15:38;5.0;;;5.0;;
21120;SDS011;12519;43.318;21.898;2023-03-29T09:20:44;5.0;;;5.0;;
21120;SDS011;12519;43.318;21.898;2023-03-29T09:25:49;5.0;;;5.0;;
21120;SDS011;12519;43.318;21.898;2023-03-29T09:30:55;5.0;;;5.0;;
21120;SDS011;12519;43.318;21.898;2023-03-29T09:35:55;5.0;;;5.0;;
21120;SDS011;12519;43.318;21.898;2023-03-29T09:40:50;6.0;;;5.0;;
21120;SDS011;12519;43.318;21.898;2023-03-29T09:45:42;6.0;;;5.0;;
21120;SDS011;12519;43.318;21.898;2023-03-29T09:50:41;6.0;;;5.0;;
21120;SDS011;12519;43.318;21.898;2023-03-29T09:55:29;6.0;;;5.0;;
21120;SDS011;12519;43.318;21.898;2023-03-29T10:00:14;6.0;;;5.0;;
21120;SDS011;12519;43.318;21.898;2023-03-29T10:04:55;6.0;;;5.0;;
21120;SDS011;12519;43.318;21.898;2023-03-29T10:09:32;6.0;;;5.0;;
21120;SDS011;12519;43.318;21.898;2023-03-29T10:14:15;7.0;;;5.0;;
21120;SDS011;12519;43.318;21.898;2023-03-29T10:19:19;7.0;;;5.0;;
21120;SDS011;12519;43.318;21.898;2023-03-29T10:24:08;7.0;;;6.0;;
21120;SDS011;12519;43.318;21.898;2023-03-29T10:28:45;7.0;;;6.0;;
21120;SDS011;12519;43.318;21.898;2023-03-29T10:33:24;7.0;;;6.0;;
21120;SDS011;12519;43.318;21.898;2023-03-29T10:38:14;7.0;;;6.0;;
21120;SDS011;12519;43.318;21.898;2023-03-29T10:43:12;7.0;;;6.0;;
21120;SDS011;12519;43.318;21.898;2023-03-29T10:48:13;7.0;;;6.0;;
21120;SDS011;12519;43.318;21.898;2023-03-29T11:04:03;7.0;;;6.0;;
21120;SDS011;12519;43.318;21.898;2023-03-29T11:09:05;7.0;;;6.0;;
21120;SDS011;12519;43.318;21.898;2023-03-29T11:14:32;7.0;;;6.0;;
21120;SDS011;12519;43.318;21.898;2023-03-29T11:20:18;7.0;;;6.0;;
21120;SDS011;12519;43.318;21.898;2023-03-29T11:25:23;6.0;;;6.0;;
21120;SDS011;12519;43.318;21.898;2023-03-29T11:30:28;6.0;;;6.0;;
21120;SDS011;12519;43.318;21.898;2023-03-29T11:35:40;5.0;;;5.0;;
21120;SDS011;12519;43.318;21.898;2023-03-29T11:40:54;5.0;;;5.0;;
21120;SDS011;12519;43.318;21.898;2023-03-29T11:45:53;6.0;;;6.0;;
21120;SDS011;12519;43.318;21.898;2023-03-29T11:50:55;6.0;;;6.0;;
21120;SDS011;12519;43.318;21.898;2023-03-29T11:55:43;8.0;;;6.0;;
21120;SDS011;12519;43.318;21.898;2023-03-29T12:00:30;8.0;;;6.0;;
21120;SDS011;12519;43.318;21.898;2023-03-29T12:05:26;6.0;;;6.0;;
21120;SDS011;12519;43.318;21.898;2023-03-29T12:10:20;6.0;;;6.0;;
21120;SDS011;12519;43.318;21.898;2023-03-29T12:15:17;5.0;;;5.0;;
21120;SDS011;12519;43.318;21.898;2023-03-29T12:20:14;5.0;;;5.0;;
21120;SDS011;12519;43.318;21.898;2023-03-29T12:25:04;6.0;;;6.0;;
21120;SDS011;12519;43.318;21.898;2023-03-29T12:30:56;6.0;;;6.0;;
21120;SDS011;12519;43.318;21.898;2023-03-29T12:36:32;6.0;;;6.0;;
21120;SDS011;12519;43.318;21.898;2023-03-29T12:42:14;6.0;;;6.0;;
21120;SDS011;12519;43.318;21.898;2023-03-29T12:47:01;6.0;;;6.0;;
21120;SDS011;12519;43.318;21.898;2023-03-29T12:51:41;6.0;;;6.0;;
21120;SDS011;12519;43.318;21.898;2023-03-29T12:56:23;6.0;;;6.0;;
21120;SDS011;12519;43.318;21.898;2023-03-29T13:01:33;6.0;;;6.0;;
21120;SDS011;12519;43.318;21.898;2023-03-29T13:06:12;6.0;;;6.0;;
21120;SDS011;12519;43.318;21.898;2023-03-29T13:11:24;5.0;;;5.0;;
21120;SDS011;12519;43.318;21.898;2023-03-29T13:16:13;5.0;;;5.0;;
21120;SDS011;12519;43.318;21.898;2023-03-29T13:21:13;5.0;;;5.0;;
21120;SDS011;12519;43.318;21.898;2023-03-29T13:26:33;5.0;;;5.0;;
21120;SDS011;12519;43.318;21.898;2023-03-29T13:31:42;5.0;;;5.0;;
21120;SDS011;12519;43.318;21.898;2023-03-29T13:37:01;5.0;;;5.0;;
21120;SDS011;12519;43.318;21.898;2023-03-29T13:42:24;6.0;;;6.0;;
21120;SDS011;12519;43.318;21.898;2023-03-29T13:47:41;6.0;;;6.0;;
21120;SDS011;12519;43.318;21.898;2023-03-29T13:52:29;6.0;;;6.0;;
21120;SDS011;12519;43.318;21.898;2023-03-29T13:57:24;6.0;;;6.0;;
21120;SDS011;12519;43.318;21.898;2023-03-29T14:02:31;6.0;;;6.0;;
21120;SDS011;12519;43.318;21.898;2023-03-29T14:07:23;6.0;;;6.0;;
21120;SDS011;12519;43.318;21.898;2023-03-29T14:12:02;5.0;;;5.0;;
21120;SDS011;12519;43.318;21.898;2023-03-29T14:16:41;5.0;;;5.0;;
21120;SDS011;12519;43.318;21.898;2023-03-29T14:21:20;6.0;;;6.0;;
21120;SDS011;12519;43.318;21.898;2023-03-29T14:26:08;6.0;;;6.0;;
21120;SDS011;12519;43.318;21.898;2023-03-29T14:30:54;6.0;;;6.0;;
21120;SDS011;12519;43.318;21.898;2023-03-29T14:35:32;6.0;;;6.0;;
21120;SDS011;12519;43.318;21.898;2023-03-29T14:40:18;6.0;;;6.0;;
21120;SDS011;12519;43.318;21.898;2023-03-29T14:45:04;6.0;;;6.0;;
21120;SDS011;12519;43.318;21.898;2023-03-29T14:49:47;6.0;;;6.0;;
21120;SDS011;12519;43.318;21.898;2023-03-29T14:54:29;6.0;;;5.0;;
21120;SDS011;12519;43.318;21.898;2023-03-29T14:59:26;6.0;;;5.0;;
21120;SDS011;12519;43.318;21.898;2023-03-29T15:04:12;7.0;;;6.0;;
21120;SDS011;12519;43.318;21.898;2023-03-29T15:08:49;7.0;;;6.0;;
21120;SDS011;12519;43.318;21.898;2023-03-29T15:13:29;8.0;;;7.0;;
21120;SDS011;12519;43.318;21.898;2023-03-29T15:18:14;8.0;;;7.0;;
21120;SDS011;12519;43.318;21.898;2023-03-29T15:23:02;8.0;;;6.0;;
21120;SDS011;12519;43.318;21.898;2023-03-29T15:27:58;8.0;;;6.0;;
21120;SDS011;12519;43.318;21.898;2023-03-29T15:32:34;7.0;;;6.0;;
21120;SDS011;12519;43.318;21.898;2023-03-29T15:37:12;7.0;;;6.0;;
21120;SDS011;12519;43.318;21.898;2023-03-29T15:41:52;6.0;;;6.0;;
21120;SDS011;12519;43.318;21.898;2023-03-29T15:46:29;6.0;;;6.0;;
21120;SDS011;12519;43.318;21.898;2023-03-29T15:51:07;6.0;;;6.0;;
21120;SDS011;12519;43.318;21.898;2023-03-29T15:55:50;6.0;;;6.0;;
21120;SDS011;12519;43.318;21.898;2023-03-29T16:00:30;6.0;;;6.0;;
21120;SDS011;12519;43.318;21.898;2023-03-29T16:05:09;7.0;;;6.0;;
21120;SDS011;12519;43.318;21.898;2023-03-29T16:09:46;7.0;;;6.0;;
21120;SDS011;12519;43.318;21.898;2023-03-29T16:14:27;8.0;;;7.0;;
21120;SDS011;12519;43.318;21.898;2023-03-29T16:19:06;8.0;;;7.0;;
21120;SDS011;12519;43.318;21.898;2023-03-29T16:23:44;10.0;;;8.0;;
21120;SDS011;12519;43.318;21.898;2023-03-29T16:28:22;10.0;;;8.0;;
21120;SDS011;12519;43.318;21.898;2023-03-29T16:32:59;11.0;;;10.0;;
21120;SDS011;12519;43.318;21.898;2023-03-29T16:37:36;11.0;;;10.0;;
21120;SDS011;12519;43.318;21.898;2023-03-29T16:42:13;12.0;;;10.0;;
21120;SDS011;12519;43.318;21.898;2023-03-29T16:46:50;12.0;;;10.0;;
21120;SDS011;12519;43.318;21.898;2023-03-29T16:51:27;12.0;;;10.0;;
21120;SDS011;12519;43.318;21.898;2023-03-29T16:56:05;12.0;;;9.0;;
21120;SDS011;12519;43.318;21.898;2023-03-29T17:00:42;12.0;;;9.0;;
21120;SDS011;12519;43.318;21.898;2023-03-29T17:05:19;12.0;;;10.0;;
21120;SDS011;12519;43.318;21.898;2023-03-29T17:09:55;12.0;;;10.0;;
21120;SDS011;12519;43.318;21.898;2023-03-29T17:14:31;12.0;;;10.0;;
21120;SDS011;12519;43.318;21.898;2023-03-29T17:19:08;12.0;;;10.0;;
21120;SDS011;12519;43.318;21.898;2023-03-29T17:23:45;18.0;;;13.0;;
21120;SDS011;12519;43.318;21.898;2023-03-29T17:28:22;18.0;;;13.0;;
21120;SDS011;12519;43.318;21.898;2023-03-29T17:32:58;24.0;;;16.0;;
21120;SDS011;12519;43.318;21.898;2023-03-29T17:37:35;24.0;;;16.0;;
21120;SDS011;12519;43.318;21.898;2023-03-29T17:42:12;22.0;;;18.0;;
21120;SDS011;12519;43.318;21.898;2023-03-29T17:46:48;22.0;;;18.0;;
21120;SDS011;12519;43.318;21.898;2023-03-29T17:51:26;22.0;;;18.0;;
21120;SDS011;12519;43.318;21.898;2023-03-29T17:56:04;21.0;;;19.0;;
21120;SDS011;12519;43.318;21.898;2023-03-29T18:00:42;21.0;;;19.0;;
21120;SDS011;12519;43.318;21.898;2023-03-29T18:05:18;21.0;;;18.0;;
21120;SDS011;12519;43.318;21.898;2023-03-29T18:09:55;21.0;;;18.0;;
21120;SDS011;12519;43.318;21.898;2023-03-29T18:14:32;21.0;;;17.0;;
21120;SDS011;12519;43.318;21.898;2023-03-29T18:19:09;21.0;;;17.0;;
21120;SDS011;12519;43.318;21.898;2023-03-29T18:23:48;27.0;;;22.0;;
21120;SDS011;12519;43.318;21.898;2023-03-29T18:28:24;27.0;;;22.0;;
21120;SDS011;12519;43.318;21.898;2023-03-29T18:33:00;33.0;;;28.0;;
21120;SDS011;12519;43.318;21.898;2023-03-29T18:37:37;33.0;;;28.0;;
21120;SDS011;12519;43.318;21.898;2023-03-29T18:42:13;68.0;;;48.0;;
21120;SDS011;12519;43.318;21.898;2023-03-29T18:46:50;68.0;;;48.0;;
21120;SDS011;12519;43.318;21.898;2023-03-29T18:51:27;68.0;;;48.0;;
21120;SDS011;12519;43.318;21.898;2023-03-29T18:56:04;104.0;;;67.0;;
21120;SDS011;12519;43.318;21.898;2023-03-29T19:00:42;104.0;;;67.0;;
21120;SDS011;12519;43.318;21.898;2023-03-29T19:05:18;59.0;;;40.0;;
21120;SDS011;12519;43.318;21.898;2023-03-29T19:09:55;59.0;;;40.0;;
21120;SDS011;12519;43.318;21.898;2023-03-29T19:14:32;14.0;;;14.0;;
21120;SDS011;12519;43.318;21.898;2023-03-29T19:19:08;14.0;;;14.0;;
21120;SDS011;12519;43.318;21.898;2023-03-29T19:23:44;25.0;;;22.0;;
21120;SDS011;12519;43.318;21.898;2023-03-29T19:28:21;25.0;;;22.0;;
21120;SDS011;12519;43.318;21.898;2023-03-29T19:32:58;36.0;;;30.0;;
21120;SDS011;12519;43.318;21.898;2023-03-29T19:37:35;36.0;;;30.0;;
21120;SDS011;12519;43.318;21.898;2023-03-29T19:42:11;44.0;;;38.0;;
21120;SDS011;12519;43.318;21.898;2023-03-29T19:46:47;44.0;;;38.0;;
21120;SDS011;12519;43.318;21.898;2023-03-29T19:51:25;44.0;;;38.0;;
21120;SDS011;12519;43.318;21.898;2023-03-29T19:56:03;51.0;;;46.0;;
21120;SDS011;12519;43.318;21.898;2023-03-29T20:00:40;51.0;;;46.0;;
21120;SDS011;12519;43.318;21.898;2023-03-29T20:05:17;58.0;;;49.0;;
21120;SDS011;12519;43.318;21.898;2023-03-29T20:09:54;58.0;;;49.0;;
21120;SDS011;12519;43.318;21.898;2023-03-29T20:14:31;64.0;;;52.0;;
21120;SDS011;12519;43.318;21.898;2023-03-29T20:19:08;64.0;;;52.0;;
21120;SDS011;12519;43.318;21.898;2023-03-29T20:23:45;56.0;;;47.0;;
21120;SDS011;12519;43.318;21.898;2023-03-29T20:28:22;56.0;;;47.0;;
21120;SDS011;12519;43.318;21.898;2023-03-29T20:33:00;48.0;;;42.0;;
21120;SDS011;12519;43.318;21.898;2023-03-29T20:37:36;48.0;;;42.0;;
21120;SDS011;12519;43.318;21.898;2023-03-29T20:42:12;37.0;;;32.0;;
21120;SDS011;12519;43.318;21.898;2023-03-29T20:46:48;37.0;;;32.0;;
21120;SDS011;12519;43.318;21.898;2023-03-29T20:51:24;37.0;;;32.0;;
21120;SDS011;12519;43.318;21.898;2023-03-29T20:56:00;26.0;;;23.0;;
21120;SDS011;12519;43.318;21.898;2023-03-29T21:00:36;26.0;;;23.0;;
21120;SDS011;12519;43.318;21.898;2023-03-29T21:05:12;29.0;;;24.0;;
21120;SDS011;12519;43.318;21.898;2023-03-29T21:09:48;29.0;;;24.0;;
21120;SDS011;12519;43.318;21.898;2023-03-29T21:14:25;32.0;;;25.0;;
21120;SDS011;12519;43.318;21.898;2023-03-29T21:19:01;32.0;;;25.0;;
21120;SDS011;12519;43.318;21.898;2023-03-29T21:23:38;36.0;;;28.0;;
21120;SDS011;12519;43.318;21.898;2023-03-29T21:28:15;36.0;;;28.0;;
21120;SDS011;12519;43.318;21.898;2023-03-29T21:32:51;39.0;;;30.0;;
21120;SDS011;12519;43.318;21.898;2023-03-29T21:37:28;39.0;;;30.0;;
21120;SDS011;12519;43.318;21.898;2023-03-29T21:42:05;39.0;;;30.0;;
21120;SDS011;12519;43.318;21.898;2023-03-29T21:46:43;32.0;;;26.0;;
21120;SDS011;12519;43.318;21.898;2023-03-29T21:51:20;32.0;;;26.0;;
21120;SDS011;12519;43.318;21.898;2023-03-29T21:55:57;26.0;;;21.0;;
21120;SDS011;12519;43.318;21.898;2023-03-29T22:00:35;26.0;;;21.0;;
21120;SDS011;12519;43.318;21.898;2023-03-29T22:05:11;27.0;;;22.0;;
21120;SDS011;12519;43.318;21.898;2023-03-29T22:09:47;27.0;;;22.0;;
21120;SDS011;12519;43.318;21.898;2023-03-29T22:14:23;28.0;;;22.0;;
21120;SDS011;12519;43.318;21.898;2023-03-29T22:19:00;28.0;;;22.0;;
21120;SDS011;12519;43.318;21.898;2023-03-29T22:23:36;28.0;;;23.0;;
21120;SDS011;12519;43.318;21.898;2023-03-29T22:28:12;28.0;;;23.0;;
21120;SDS011;12519;43.318;21.898;2023-03-29T22:32:48;28.0;;;24.0;;
21120;SDS011;12519;43.318;21.898;2023-03-29T22:37:24;28.0;;;24.0;;
21120;SDS011;12519;43.318;21.898;2023-03-29T22:42:01;28.0;;;24.0;;
21120;SDS011;12519;43.318;21.898;2023-03-29T22:46:38;32.0;;;28.0;;
21120;SDS011;12519;43.318;21.898;2023-03-29T22:51:15;32.0;;;28.0;;
21120;SDS011;12519;43.318;21.898;2023-03-29T22:55:53;36.0;;;31.0;;
21120;SDS011;12519;43.318;21.898;2023-03-29T23:00:30;36.0;;;31.0;;
21120;SDS011;12519;43.318;21.898;2023-03-29T23:05:08;38.0;;;31.0;;
21120;SDS011;12519;43.318;21.898;2023-03-29T23:09:45;38.0;;;31.0;;
21120;SDS011;12519;43.318;21.898;2023-03-29T23:14:21;39.0;;;31.0;;
21120;SDS011;12519;43.318;21.898;2023-03-29T23:18:57;39.0;;;31.0;;
21120;SDS011;12519;43.318;21.898;2023-03-29T23:23:34;42.0;;;34.0;;
21120;SDS011;12519;43.318;21.898;2023-03-29T23:28:12;42.0;;;34.0;;
21120;SDS011;12519;43.318;21.898;2023-03-29T23:32:50;44.0;;;36.0;;
21120;SDS011;12519;43.318;21.898;2023-03-29T23:37:26;44.0;;;36.0;;
21120;SDS011;12519;43.318;21.898;2023-03-29T23:42:03;44.0;;;36.0;;
21120;SDS011;12519;43.318;21.898;2023-03-29T23:46:39;47.0;;;37.0;;
21120;SDS011;12519;43.318;21.898;2023-03-29T23:51:16;47.0;;;37.0;;
21120;SDS011;12519;43.318;21.898;2023-03-29T23:55:55;50.0;;;38.0;;
